sensor_id;sensor_type;location;lat;lon;timestamp;P1;durP1;ratioP1;P2;durP2;ratioP2
52031;SDS011;38044;45.148;39.604;2023-05-07T00:00:21;8.40;;;2.45;;
52031;SDS011;38044;45.148;39.604;2023-05-07T00:02:46;9.73;;;2.60;;
52031;SDS011;38044;45.148;39.604;2023-05-07T00:05:12;8.63;;;2.60;;
52031;SDS011;38044;45.148;39.604;2023-05-07T00:07:39;12.02;;;3.00;;
52031;SDS011;38044;45.148;39.604;2023-05-07T00:10:05;8.80;;;2.80;;
52031;SDS011;38044;45.148;39.604;2023-05-07T00:12:32;7.65;;;2.58;;
52031;SDS011;38044;45.148;39.604;2023-05-07T00:15:04;8.95;;;2.85;;
52031;SDS011;38044;45.148;39.604;2023-05-07T00:17:30;8.15;;;2.90;;
52031;SDS011;38044;45.148;39.604;2023-05-07T00:19:56;7.05;;;2.47;;
52031;SDS011;38044;45.148;39.604;2023-05-07T00:22:22;8.82;;;3.55;;
52031;SDS011;38044;45.148;39.604;2023-05-07T00:24:48;12.25;;;3.03;;
52031;SDS011;38044;45.148;39.604;2023-05-07T00:27:13;11.60;;;3.33;;
52031;SDS011;38044;45.148;39.604;2023-05-07T00:29:39;8.80;;;2.95;;
52031;SDS011;38044;45.148;39.604;2023-05-07T00:32:05;10.73;;;2.97;;
52031;SDS011;38044;45.148;39.604;2023-05-07T00:34:31;10.10;;;3.22;;
52031;SDS011;38044;45.148;39.604;2023-05-07T00:36:56;7.15;;;3.05;;
52031;SDS011;38044;45.148;39.604;2023-05-07T00:39:22;18.27;;;3.03;;
52031;SDS011;38044;45.148;39.604;2023-05-07T00:41:48;9.48;;;2.55;;
52031;SDS011;38044;45.148;39.604;2023-05-07T00:44:14;9.05;;;3.47;;
52031;SDS011;38044;45.148;39.604;2023-05-07T00:46:40;11.38;;;3.00;;
52031;SDS011;38044;45.148;39.604;2023-05-07T00:49:06;9.07;;;3.35;;
52031;SDS011;38044;45.148;39.604;2023-05-07T00:51:32;7.80;;;3.08;;
52031;SDS011;38044;45.148;39.604;2023-05-07T00:53:59;10.95;;;2.75;;
52031;SDS011;38044;45.148;39.604;2023-05-07T00:56:27;6.40;;;2.70;;
52031;SDS011;38044;45.148;39.604;2023-05-07T00:58:53;13.45;;;3.35;;
52031;SDS011;38044;45.148;39.604;2023-05-07T01:01:19;8.95;;;2.70;;
52031;SDS011;38044;45.148;39.604;2023-05-07T01:03:45;12.55;;;3.17;;
52031;SDS011;38044;45.148;39.604;2023-05-07T01:06:11;8.55;;;2.67;;
52031;SDS011;38044;45.148;39.604;2023-05-07T01:08:39;7.75;;;2.70;;
52031;SDS011;38044;45.148;39.604;2023-05-07T01:11:06;7.43;;;2.80;;
52031;SDS011;38044;45.148;39.604;2023-05-07T01:13:33;8.93;;;3.05;;
52031;SDS011;38044;45.148;39.604;2023-05-07T01:16:01;11.38;;;3.15;;
52031;SDS011;38044;45.148;39.604;2023-05-07T01:18:27;9.52;;;2.72;;
52031;SDS011;38044;45.148;39.604;2023-05-07T01:20:55;6.97;;;2.47;;
52031;SDS011;38044;45.148;39.604;2023-05-07T01:23:23;8.23;;;2.45;;
52031;SDS011;38044;45.148;39.604;2023-05-07T01:25:53;4.60;;;2.40;;
52031;SDS011;38044;45.148;39.604;2023-05-07T01:28:20;5.20;;;2.55;;
52031;SDS011;38044;45.148;39.604;2023-05-07T01:30:48;6.38;;;2.45;;
52031;SDS011;38044;45.148;39.604;2023-05-07T01:33:19;11.73;;;3.00;;
52031;SDS011;38044;45.148;39.604;2023-05-07T01:35:52;9.82;;;2.50;;
52031;SDS011;38044;45.148;39.604;2023-05-07T01:38:19;6.20;;;2.60;;
52031;SDS011;38044;45.148;39.604;2023-05-07T01:40:47;5.20;;;2.22;;
52031;SDS011;38044;45.148;39.604;2023-05-07T01:43:13;7.07;;;2.72;;
52031;SDS011;38044;45.148;39.604;2023-05-07T01:45:39;10.40;;;3.10;;
52031;SDS011;38044;45.148;39.604;2023-05-07T01:48:06;11.10;;;3.40;;
52031;SDS011;38044;45.148;39.604;2023-05-07T01:50:32;13.25;;;3.00;;
52031;SDS011;38044;45.148;39.604;2023-05-07T01:53:00;6.60;;;2.78;;
52031;SDS011;38044;45.148;39.604;2023-05-07T01:55:26;8.95;;;2.80;;
52031;SDS011;38044;45.148;39.604;2023-05-07T01:57:52;15.27;;;2.85;;
52031;SDS011;38044;45.148;39.604;2023-05-07T02:00:18;8.07;;;2.85;;
52031;SDS011;38044;45.148;39.604;2023-05-07T02:02:44;8.57;;;2.58;;
52031;SDS011;38044;45.148;39.604;2023-05-07T02:05:10;6.72;;;2.72;;
52031;SDS011;38044;45.148;39.604;2023-05-07T02:07:36;8.55;;;2.85;;
52031;SDS011;38044;45.148;39.604;2023-05-07T02:10:02;6.00;;;3.33;;
52031;SDS011;38044;45.148;39.604;2023-05-07T02:12:28;10.27;;;2.78;;
52031;SDS011;38044;45.148;39.604;2023-05-07T02:14:54;6.88;;;2.80;;
52031;SDS011;38044;45.148;39.604;2023-05-07T02:17:19;6.35;;;2.60;;
52031;SDS011;38044;45.148;39.604;2023-05-07T02:19:45;6.43;;;2.67;;
52031;SDS011;38044;45.148;39.604;2023-05-07T02:22:11;7.22;;;2.53;;
52031;SDS011;38044;45.148;39.604;2023-05-07T02:24:37;5.47;;;3.03;;
52031;SDS011;38044;45.148;39.604;2023-05-07T02:27:03;6.38;;;2.70;;
52031;SDS011;38044;45.148;39.604;2023-05-07T02:29:29;6.47;;;2.97;;
52031;SDS011;38044;45.148;39.604;2023-05-07T02:31:55;6.90;;;2.92;;
52031;SDS011;38044;45.148;39.604;2023-05-07T02:34:20;6.93;;;2.60;;
52031;SDS011;38044;45.148;39.604;2023-05-07T02:36:46;3.60;;;2.25;;
52031;SDS011;38044;45.148;39.604;2023-05-07T02:39:12;6.43;;;2.05;;
52031;SDS011;38044;45.148;39.604;2023-05-07T02:41:38;6.40;;;2.00;;
52031;SDS011;38044;45.148;39.604;2023-05-07T02:44:04;4.47;;;2.08;;
52031;SDS011;38044;45.148;39.604;2023-05-07T02:46:31;3.38;;;2.20;;
52031;SDS011;38044;45.148;39.604;2023-05-07T02:48:56;6.50;;;2.42;;
52031;SDS011;38044;45.148;39.604;2023-05-07T02:51:22;4.72;;;2.00;;
52031;SDS011;38044;45.148;39.604;2023-05-07T02:53:48;5.63;;;1.95;;
52031;SDS011;38044;45.148;39.604;2023-05-07T02:56:14;8.23;;;2.30;;
52031;SDS011;38044;45.148;39.604;2023-05-07T02:58:40;8.93;;;2.33;;
52031;SDS011;38044;45.148;39.604;2023-05-07T03:01:07;4.05;;;1.95;;
52031;SDS011;38044;45.148;39.604;2023-05-07T03:03:33;4.03;;;2.47;;
52031;SDS011;38044;45.148;39.604;2023-05-07T03:05:59;3.33;;;1.90;;
52031;SDS011;38044;45.148;39.604;2023-05-07T03:08:25;4.50;;;1.95;;
52031;SDS011;38044;45.148;39.604;2023-05-07T03:10:50;4.85;;;1.92;;
52031;SDS011;38044;45.148;39.604;2023-05-07T03:13:16;5.38;;;1.90;;
52031;SDS011;38044;45.148;39.604;2023-05-07T03:15:42;4.65;;;2.20;;
52031;SDS011;38044;45.148;39.604;2023-05-07T03:18:08;4.97;;;2.15;;
52031;SDS011;38044;45.148;39.604;2023-05-07T03:20:34;4.60;;;2.20;;
52031;SDS011;38044;45.148;39.604;2023-05-07T03:23:01;3.15;;;1.88;;
52031;SDS011;38044;45.148;39.604;2023-05-07T03:25:27;8.85;;;1.90;;
52031;SDS011;38044;45.148;39.604;2023-05-07T03:27:55;8.88;;;2.50;;
52031;SDS011;38044;45.148;39.604;2023-05-07T03:30:21;7.90;;;2.53;;
52031;SDS011;38044;45.148;39.604;2023-05-07T03:32:47;5.03;;;2.13;;
52031;SDS011;38044;45.148;39.604;2023-05-07T03:35:13;2.65;;;1.83;;
52031;SDS011;38044;45.148;39.604;2023-05-07T03:37:39;4.97;;;2.13;;
52031;SDS011;38044;45.148;39.604;2023-05-07T03:40:05;5.20;;;2.03;;
52031;SDS011;38044;45.148;39.604;2023-05-07T03:42:33;3.85;;;1.90;;
52031;SDS011;38044;45.148;39.604;2023-05-07T03:44:58;5.00;;;1.80;;
52031;SDS011;38044;45.148;39.604;2023-05-07T03:47:24;5.65;;;1.98;;
52031;SDS011;38044;45.148;39.604;2023-05-07T03:49:50;3.08;;;1.73;;
52031;SDS011;38044;45.148;39.604;2023-05-07T03:52:18;7.63;;;1.77;;
52031;SDS011;38044;45.148;39.604;2023-05-07T03:54:49;4.30;;;2.15;;
52031;SDS011;38044;45.148;39.604;2023-05-07T03:57:15;3.60;;;1.90;;
52031;SDS011;38044;45.148;39.604;2023-05-07T03:59:40;1.83;;;1.58;;
52031;SDS011;38044;45.148;39.604;2023-05-07T04:02:06;7.28;;;2.00;;
52031;SDS011;38044;45.148;39.604;2023-05-07T04:04:32;4.18;;;1.88;;
52031;SDS011;38044;45.148;39.604;2023-05-07T04:06:58;5.85;;;1.80;;
52031;SDS011;38044;45.148;39.604;2023-05-07T04:09:25;5.10;;;1.75;;
52031;SDS011;38044;45.148;39.604;2023-05-07T04:11:51;4.18;;;1.90;;
52031;SDS011;38044;45.148;39.604;2023-05-07T04:14:17;5.20;;;2.10;;
52031;SDS011;38044;45.148;39.604;2023-05-07T04:16:42;7.45;;;1.50;;
52031;SDS011;38044;45.148;39.604;2023-05-07T04:19:08;1.77;;;1.33;;
52031;SDS011;38044;45.148;39.604;2023-05-07T04:21:34;4.10;;;1.95;;
52031;SDS011;38044;45.148;39.604;2023-05-07T04:24:00;7.00;;;1.73;;
52031;SDS011;38044;45.148;39.604;2023-05-07T04:26:25;10.95;;;4.25;;
52031;SDS011;38044;45.148;39.604;2023-05-07T04:28:51;4.75;;;2.65;;
52031;SDS011;38044;45.148;39.604;2023-05-07T04:31:17;5.93;;;2.85;;
52031;SDS011;38044;45.148;39.604;2023-05-07T04:33:43;6.93;;;1.88;;
52031;SDS011;38044;45.148;39.604;2023-05-07T04:36:09;8.45;;;2.75;;
52031;SDS011;38044;45.148;39.604;2023-05-07T04:38:35;6.95;;;2.35;;
52031;SDS011;38044;45.148;39.604;2023-05-07T04:41:02;6.57;;;1.90;;
52031;SDS011;38044;45.148;39.604;2023-05-07T04:43:31;4.13;;;1.42;;
52031;SDS011;38044;45.148;39.604;2023-05-07T04:45:57;7.35;;;1.95;;
52031;SDS011;38044;45.148;39.604;2023-05-07T04:48:22;6.65;;;2.05;;
52031;SDS011;38044;45.148;39.604;2023-05-07T04:50:49;3.92;;;1.75;;
52031;SDS011;38044;45.148;39.604;2023-05-07T04:53:15;5.13;;;2.08;;
52031;SDS011;38044;45.148;39.604;2023-05-07T04:55:45;4.88;;;1.52;;
52031;SDS011;38044;45.148;39.604;2023-05-07T04:58:11;4.95;;;1.33;;
52031;SDS011;38044;45.148;39.604;2023-05-07T05:00:37;9.52;;;1.80;;
52031;SDS011;38044;45.148;39.604;2023-05-07T05:03:04;2.85;;;1.35;;
52031;SDS011;38044;45.148;39.604;2023-05-07T05:05:31;4.25;;;1.50;;
52031;SDS011;38044;45.148;39.604;2023-05-07T05:07:57;7.93;;;2.10;;
52031;SDS011;38044;45.148;39.604;2023-05-07T05:10:23;3.65;;;1.35;;
52031;SDS011;38044;45.148;39.604;2023-05-07T05:12:50;5.15;;;1.58;;
52031;SDS011;38044;45.148;39.604;2023-05-07T05:15:16;4.30;;;2.00;;
52031;SDS011;38044;45.148;39.604;2023-05-07T05:17:41;3.85;;;1.85;;
52031;SDS011;38044;45.148;39.604;2023-05-07T05:20:07;5.10;;;2.10;;
52031;SDS011;38044;45.148;39.604;2023-05-07T05:22:35;4.57;;;2.00;;
52031;SDS011;38044;45.148;39.604;2023-05-07T05:25:01;7.53;;;2.00;;
52031;SDS011;38044;45.148;39.604;2023-05-07T05:27:27;5.53;;;1.67;;
52031;SDS011;38044;45.148;39.604;2023-05-07T05:29:52;6.45;;;1.88;;
52031;SDS011;38044;45.148;39.604;2023-05-07T05:32:18;8.38;;;1.90;;
52031;SDS011;38044;45.148;39.604;2023-05-07T05:34:44;6.80;;;2.10;;
52031;SDS011;38044;45.148;39.604;2023-05-07T05:37:10;4.57;;;2.22;;
52031;SDS011;38044;45.148;39.604;2023-05-07T05:39:35;6.72;;;2.15;;
52031;SDS011;38044;45.148;39.604;2023-05-07T05:42:01;5.57;;;2.10;;
52031;SDS011;38044;45.148;39.604;2023-05-07T05:44:27;4.80;;;1.98;;
52031;SDS011;38044;45.148;39.604;2023-05-07T05:46:53;4.95;;;1.80;;
52031;SDS011;38044;45.148;39.604;2023-05-07T05:49:24;6.18;;;2.03;;
52031;SDS011;38044;45.148;39.604;2023-05-07T05:51:50;7.93;;;2.33;;
52031;SDS011;38044;45.148;39.604;2023-05-07T05:54:16;3.40;;;1.80;;
52031;SDS011;38044;45.148;39.604;2023-05-07T05:56:42;21.55;;;2.45;;
52031;SDS011;38044;45.148;39.604;2023-05-07T05:59:08;3.35;;;2.05;;
52031;SDS011;38044;45.148;39.604;2023-05-07T06:01:34;7.18;;;2.33;;
52031;SDS011;38044;45.148;39.604;2023-05-07T06:04:00;6.95;;;2.33;;
52031;SDS011;38044;45.148;39.604;2023-05-07T06:06:25;7.03;;;2.30;;
52031;SDS011;38044;45.148;39.604;2023-05-07T06:08:51;5.60;;;2.03;;
52031;SDS011;38044;45.148;39.604;2023-05-07T06:11:17;6.32;;;2.22;;
52031;SDS011;38044;45.148;39.604;2023-05-07T06:13:43;8.43;;;2.35;;
52031;SDS011;38044;45.148;39.604;2023-05-07T06:16:08;6.53;;;2.30;;
52031;SDS011;38044;45.148;39.604;2023-05-07T06:18:36;8.70;;;2.28;;
52031;SDS011;38044;45.148;39.604;2023-05-07T06:21:02;6.78;;;2.47;;
52031;SDS011;38044;45.148;39.604;2023-05-07T06:23:27;2.80;;;1.70;;
52031;SDS011;38044;45.148;39.604;2023-05-07T06:25:53;6.88;;;2.10;;
52031;SDS011;38044;45.148;39.604;2023-05-07T06:28:19;3.83;;;2.08;;
52031;SDS011;38044;45.148;39.604;2023-05-07T06:30:45;5.70;;;2.42;;
52031;SDS011;38044;45.148;39.604;2023-05-07T06:33:11;6.68;;;2.30;;
52031;SDS011;38044;45.148;39.604;2023-05-07T06:35:36;7.97;;;1.90;;
52031;SDS011;38044;45.148;39.604;2023-05-07T06:38:02;6.45;;;2.40;;
52031;SDS011;38044;45.148;39.604;2023-05-07T06:40:28;3.85;;;1.98;;
52031;SDS011;38044;45.148;39.604;2023-05-07T06:42:54;5.75;;;1.90;;
52031;SDS011;38044;45.148;39.604;2023-05-07T06:45:19;5.68;;;2.03;;
52031;SDS011;38044;45.148;39.604;2023-05-07T06:47:45;5.13;;;2.03;;
52031;SDS011;38044;45.148;39.604;2023-05-07T06:50:11;7.45;;;2.20;;
52031;SDS011;38044;45.148;39.604;2023-05-07T06:52:37;9.25;;;2.30;;
52031;SDS011;38044;45.148;39.604;2023-05-07T06:55:03;5.75;;;2.10;;
52031;SDS011;38044;45.148;39.604;2023-05-07T06:57:30;5.43;;;2.40;;
52031;SDS011;38044;45.148;39.604;2023-05-07T06:59:55;7.40;;;2.33;;
52031;SDS011;38044;45.148;39.604;2023-05-07T07:02:21;6.07;;;2.22;;
52031;SDS011;38044;45.148;39.604;2023-05-07T07:04:47;7.13;;;2.10;;
52031;SDS011;38044;45.148;39.604;2023-05-07T07:07:13;5.93;;;2.00;;
52031;SDS011;38044;45.148;39.604;2023-05-07T07:09:39;5.55;;;2.10;;
52031;SDS011;38044;45.148;39.604;2023-05-07T07:12:04;6.22;;;2.08;;
52031;SDS011;38044;45.148;39.604;2023-05-07T07:14:30;7.28;;;2.47;;
52031;SDS011;38044;45.148;39.604;2023-05-07T07:16:56;9.38;;;3.72;;
52031;SDS011;38044;45.148;39.604;2023-05-07T07:19:22;5.72;;;2.85;;
52031;SDS011;38044;45.148;39.604;2023-05-07T07:21:48;16.08;;;5.70;;
52031;SDS011;38044;45.148;39.604;2023-05-07T07:24:14;7.38;;;3.53;;
52031;SDS011;38044;45.148;39.604;2023-05-07T07:26:44;9.30;;;3.33;;
52031;SDS011;38044;45.148;39.604;2023-05-07T07:29:10;22.35;;;4.93;;
52031;SDS011;38044;45.148;39.604;2023-05-07T07:31:36;5.20;;;2.60;;
52031;SDS011;38044;45.148;39.604;2023-05-07T07:34:02;17.85;;;3.67;;
52031;SDS011;38044;45.148;39.604;2023-05-07T07:36:27;7.90;;;4.00;;
52031;SDS011;38044;45.148;39.604;2023-05-07T07:38:53;9.32;;;3.40;;
52031;SDS011;38044;45.148;39.604;2023-05-07T07:41:19;5.45;;;3.08;;
52031;SDS011;38044;45.148;39.604;2023-05-07T07:43:46;33.33;;;4.38;;
52031;SDS011;38044;45.148;39.604;2023-05-07T07:46:12;11.23;;;3.95;;
52031;SDS011;38044;45.148;39.604;2023-05-07T07:48:38;6.18;;;3.38;;
52031;SDS011;38044;45.148;39.604;2023-05-07T07:51:03;12.73;;;3.60;;
52031;SDS011;38044;45.148;39.604;2023-05-07T07:53:29;9.50;;;3.20;;
52031;SDS011;38044;45.148;39.604;2023-05-07T07:55:55;11.02;;;4.15;;
52031;SDS011;38044;45.148;39.604;2023-05-07T07:58:21;11.30;;;3.00;;
52031;SDS011;38044;45.148;39.604;2023-05-07T08:00:47;8.90;;;3.25;;
52031;SDS011;38044;45.148;39.604;2023-05-07T08:03:13;9.10;;;3.42;;
52031;SDS011;38044;45.148;39.604;2023-05-07T08:05:41;9.80;;;3.90;;
52031;SDS011;38044;45.148;39.604;2023-05-07T08:08:08;8.07;;;3.50;;
52031;SDS011;38044;45.148;39.604;2023-05-07T08:10:34;14.02;;;4.15;;
52031;SDS011;38044;45.148;39.604;2023-05-07T08:13:03;11.25;;;3.85;;
52031;SDS011;38044;45.148;39.604;2023-05-07T08:15:29;16.70;;;7.13;;
52031;SDS011;38044;45.148;39.604;2023-05-07T08:17:55;13.73;;;4.80;;
52031;SDS011;38044;45.148;39.604;2023-05-07T08:20:22;11.40;;;5.00;;
52031;SDS011;38044;45.148;39.604;2023-05-07T08:22:48;24.55;;;5.95;;
52031;SDS011;38044;45.148;39.604;2023-05-07T08:25:14;72.95;;;7.97;;
52031;SDS011;38044;45.148;39.604;2023-05-07T08:27:40;16.85;;;6.05;;
52031;SDS011;38044;45.148;39.604;2023-05-07T08:30:06;10.07;;;5.03;;
52031;SDS011;38044;45.148;39.604;2023-05-07T08:35:25;11.45;;;5.00;;
52031;SDS011;38044;45.148;39.604;2023-05-07T08:37:52;14.80;;;5.47;;
52031;SDS011;38044;45.148;39.604;2023-05-07T08:40:18;19.38;;;6.03;;
52031;SDS011;38044;45.148;39.604;2023-05-07T08:42:51;13.13;;;6.25;;
52031;SDS011;38044;45.148;39.604;2023-05-07T08:45:21;10.07;;;5.40;;
52031;SDS011;38044;45.148;39.604;2023-05-07T08:47:50;18.33;;;8.27;;
52031;SDS011;38044;45.148;39.604;2023-05-07T08:50:21;24.75;;;9.50;;
52031;SDS011;38044;45.148;39.604;2023-05-07T08:52:47;14.25;;;6.72;;
52031;SDS011;38044;45.148;39.604;2023-05-07T08:55:13;14.45;;;7.63;;
52031;SDS011;38044;45.148;39.604;2023-05-07T08:57:40;16.70;;;7.25;;
52031;SDS011;38044;45.148;39.604;2023-05-07T09:00:06;14.10;;;7.18;;
52031;SDS011;38044;45.148;39.604;2023-05-07T09:02:34;16.65;;;7.88;;
52031;SDS011;38044;45.148;39.604;2023-05-07T09:05:01;23.33;;;6.40;;
52031;SDS011;38044;45.148;39.604;2023-05-07T09:07:27;18.83;;;6.35;;
52031;SDS011;38044;45.148;39.604;2023-05-07T09:09:54;24.83;;;12.65;;
52031;SDS011;38044;45.148;39.604;2023-05-07T09:12:20;18.33;;;9.52;;
52031;SDS011;38044;45.148;39.604;2023-05-07T09:14:46;18.73;;;11.55;;
52031;SDS011;38044;45.148;39.604;2023-05-07T09:17:13;18.35;;;6.95;;
52031;SDS011;38044;45.148;39.604;2023-05-07T09:19:40;15.40;;;6.68;;
52031;SDS011;38044;45.148;39.604;2023-05-07T09:22:06;15.80;;;6.80;;
52031;SDS011;38044;45.148;39.604;2023-05-07T09:24:32;13.05;;;6.00;;
52031;SDS011;38044;45.148;39.604;2023-05-07T09:27:06;29.55;;;11.05;;
52031;SDS011;38044;45.148;39.604;2023-05-07T09:29:35;19.90;;;8.82;;
52031;SDS011;38044;45.148;39.604;2023-05-07T09:32:01;32.58;;;16.60;;
52031;SDS011;38044;45.148;39.604;2023-05-07T09:34:29;10.55;;;4.55;;
52031;SDS011;38044;45.148;39.604;2023-05-07T09:36:55;7.68;;;3.85;;
52031;SDS011;38044;45.148;39.604;2023-05-07T09:39:26;7.22;;;3.65;;
52031;SDS011;38044;45.148;39.604;2023-05-07T09:42:03;9.30;;;3.83;;
52031;SDS011;38044;45.148;39.604;2023-05-07T09:44:31;15.25;;;6.45;;
52031;SDS011;38044;45.148;39.604;2023-05-07T09:46:57;26.45;;;11.63;;
52031;SDS011;38044;45.148;39.604;2023-05-07T09:49:26;11.75;;;5.25;;
52031;SDS011;38044;45.148;39.604;2023-05-07T09:51:55;11.68;;;3.85;;
52031;SDS011;38044;45.148;39.604;2023-05-07T09:54:24;16.73;;;5.32;;
52031;SDS011;38044;45.148;39.604;2023-05-07T09:56:51;11.98;;;3.45;;
52031;SDS011;38044;45.148;39.604;2023-05-07T09:59:18;11.63;;;3.30;;
52031;SDS011;38044;45.148;39.604;2023-05-07T10:01:45;9.50;;;3.40;;
52031;SDS011;38044;45.148;39.604;2023-05-07T10:04:11;11.25;;;4.07;;
52031;SDS011;38044;45.148;39.604;2023-05-07T10:06:39;11.32;;;3.22;;
52031;SDS011;38044;45.148;39.604;2023-05-07T10:09:06;11.18;;;3.50;;
52031;SDS011;38044;45.148;39.604;2023-05-07T10:11:35;9.43;;;2.95;;
52031;SDS011;38044;45.148;39.604;2023-05-07T10:14:02;12.15;;;3.95;;
52031;SDS011;38044;45.148;39.604;2023-05-07T10:16:34;12.32;;;3.67;;
52031;SDS011;38044;45.148;39.604;2023-05-07T10:19:04;14.77;;;3.45;;
52031;SDS011;38044;45.148;39.604;2023-05-07T10:21:35;14.10;;;2.85;;
52031;SDS011;38044;45.148;39.604;2023-05-07T10:26:33;11.35;;;3.13;;
52031;SDS011;38044;45.148;39.604;2023-05-07T10:29:05;8.65;;;2.60;;
52031;SDS011;38044;45.148;39.604;2023-05-07T10:32:06;10.45;;;2.97;;
52031;SDS011;38044;45.148;39.604;2023-05-07T10:34:34;8.38;;;2.28;;
52031;SDS011;38044;45.148;39.604;2023-05-07T10:37:03;8.52;;;2.85;;
52031;SDS011;38044;45.148;39.604;2023-05-07T10:39:29;8.90;;;2.80;;
52031;SDS011;38044;45.148;39.604;2023-05-07T10:41:55;6.88;;;3.13;;
52031;SDS011;38044;45.148;39.604;2023-05-07T10:44:27;11.65;;;3.47;;
52031;SDS011;38044;45.148;39.604;2023-05-07T10:47:04;13.60;;;3.63;;
52031;SDS011;38044;45.148;39.604;2023-05-07T10:52:19;11.88;;;3.00;;
52031;SDS011;38044;45.148;39.604;2023-05-07T10:54:46;6.07;;;2.70;;
52031;SDS011;38044;45.148;39.604;2023-05-07T10:59:57;4.50;;;2.47;;
52031;SDS011;38044;45.148;39.604;2023-05-07T11:02:23;9.30;;;2.60;;
52031;SDS011;38044;45.148;39.604;2023-05-07T11:05:18;13.18;;;3.75;;
52031;SDS011;38044;45.148;39.604;2023-05-07T11:07:55;7.90;;;3.20;;
52031;SDS011;38044;45.148;39.604;2023-05-07T11:13:12;7.72;;;2.22;;
52031;SDS011;38044;45.148;39.604;2023-05-07T11:15:40;6.60;;;2.70;;
52031;SDS011;38044;45.148;39.604;2023-05-07T11:18:10;7.05;;;2.75;;
52031;SDS011;38044;45.148;39.604;2023-05-07T11:20:48;8.40;;;2.22;;
52031;SDS011;38044;45.148;39.604;2023-05-07T11:26:04;7.07;;;2.45;;
52031;SDS011;38044;45.148;39.604;2023-05-07T11:28:36;8.98;;;2.60;;
52031;SDS011;38044;45.148;39.604;2023-05-07T11:31:03;16.17;;;2.38;;
52031;SDS011;38044;45.148;39.604;2023-05-07T11:33:30;8.88;;;3.10;;
52031;SDS011;38044;45.148;39.604;2023-05-07T11:35:56;7.90;;;2.30;;
52031;SDS011;38044;45.148;39.604;2023-05-07T11:38:23;4.40;;;1.73;;
52031;SDS011;38044;45.148;39.604;2023-05-07T11:40:51;6.72;;;2.65;;
52031;SDS011;38044;45.148;39.604;2023-05-07T11:43:17;8.63;;;2.42;;
52031;SDS011;38044;45.148;39.604;2023-05-07T11:45:47;6.63;;;2.08;;
52031;SDS011;38044;45.148;39.604;2023-05-07T11:48:13;6.45;;;1.70;;
52031;SDS011;38044;45.148;39.604;2023-05-07T11:50:53;6.82;;;1.70;;
52031;SDS011;38044;45.148;39.604;2023-05-07T11:53:25;4.97;;;1.90;;
52031;SDS011;38044;45.148;39.604;2023-05-07T11:55:52;5.07;;;2.00;;
52031;SDS011;38044;45.148;39.604;2023-05-07T11:58:20;7.90;;;2.35;;
52031;SDS011;38044;45.148;39.604;2023-05-07T12:00:48;6.88;;;2.40;;
52031;SDS011;38044;45.148;39.604;2023-05-07T12:03:15;10.55;;;3.03;;
52031;SDS011;38044;45.148;39.604;2023-05-07T12:05:41;8.75;;;3.05;;
52031;SDS011;38044;45.148;39.604;2023-05-07T12:08:07;5.72;;;2.30;;
52031;SDS011;38044;45.148;39.604;2023-05-07T12:10:33;6.00;;;1.98;;
52031;SDS011;38044;45.148;39.604;2023-05-07T12:12:59;6.57;;;2.50;;
52031;SDS011;38044;45.148;39.604;2023-05-07T12:15:25;5.07;;;2.00;;
52031;SDS011;38044;45.148;39.604;2023-05-07T12:17:51;9.23;;;2.70;;
52031;SDS011;38044;45.148;39.604;2023-05-07T12:20:17;9.80;;;2.42;;
52031;SDS011;38044;45.148;39.604;2023-05-07T12:22:43;7.32;;;3.00;;
52031;SDS011;38044;45.148;39.604;2023-05-07T12:25:10;4.38;;;1.90;;
52031;SDS011;38044;45.148;39.604;2023-05-07T12:27:38;7.75;;;1.70;;
52031;SDS011;38044;45.148;39.604;2023-05-07T12:30:05;5.75;;;2.25;;
52031;SDS011;38044;45.148;39.604;2023-05-07T12:32:34;7.00;;;2.25;;
52031;SDS011;38044;45.148;39.604;2023-05-07T12:35:02;5.72;;;2.33;;
52031;SDS011;38044;45.148;39.604;2023-05-07T12:37:28;7.82;;;2.72;;
52031;SDS011;38044;45.148;39.604;2023-05-07T12:40:09;7.40;;;3.17;;
52031;SDS011;38044;45.148;39.604;2023-05-07T12:42:36;6.77;;;2.83;;
52031;SDS011;38044;45.148;39.604;2023-05-07T12:45:13;8.63;;;3.72;;
52031;SDS011;38044;45.148;39.604;2023-05-07T12:47:47;9.95;;;4.47;;
52031;SDS011;38044;45.148;39.604;2023-05-07T12:50:13;26.17;;;12.98;;
52031;SDS011;38044;45.148;39.604;2023-05-07T12:52:40;11.20;;;5.55;;
52031;SDS011;38044;45.148;39.604;2023-05-07T12:55:07;10.98;;;5.25;;
52031;SDS011;38044;45.148;39.604;2023-05-07T12:57:41;7.40;;;2.72;;
52031;SDS011;38044;45.148;39.604;2023-05-07T13:00:09;7.63;;;3.60;;
52031;SDS011;38044;45.148;39.604;2023-05-07T13:02:38;8.68;;;4.43;;
52031;SDS011;38044;45.148;39.604;2023-05-07T13:05:05;9.82;;;5.65;;
52031;SDS011;38044;45.148;39.604;2023-05-07T13:07:31;8.80;;;5.10;;
52031;SDS011;38044;45.148;39.604;2023-05-07T13:09:57;6.88;;;3.13;;
52031;SDS011;38044;45.148;39.604;2023-05-07T13:12:23;4.88;;;2.58;;
52031;SDS011;38044;45.148;39.604;2023-05-07T13:14:49;5.55;;;3.25;;
52031;SDS011;38044;45.148;39.604;2023-05-07T13:17:14;6.70;;;3.22;;
52031;SDS011;38044;45.148;39.604;2023-05-07T13:19:40;9.30;;;2.92;;
52031;SDS011;38044;45.148;39.604;2023-05-07T13:22:06;12.10;;;3.80;;
52031;SDS011;38044;45.148;39.604;2023-05-07T13:24:32;10.18;;;3.78;;
52031;SDS011;38044;45.148;39.604;2023-05-07T13:26:58;10.93;;;4.22;;
52031;SDS011;38044;45.148;39.604;2023-05-07T13:29:23;20.30;;;5.32;;
52031;SDS011;38044;45.148;39.604;2023-05-07T13:31:56;10.85;;;4.50;;
52031;SDS011;38044;45.148;39.604;2023-05-07T13:34:22;7.43;;;3.40;;
52031;SDS011;38044;45.148;39.604;2023-05-07T13:36:48;5.65;;;2.38;;
52031;SDS011;38044;45.148;39.604;2023-05-07T13:39:13;5.97;;;2.28;;
52031;SDS011;38044;45.148;39.604;2023-05-07T13:41:39;10.27;;;2.50;;
52031;SDS011;38044;45.148;39.604;2023-05-07T13:44:05;9.15;;;2.53;;
52031;SDS011;38044;45.148;39.604;2023-05-07T13:46:31;11.25;;;4.45;;
52031;SDS011;38044;45.148;39.604;2023-05-07T13:48:57;15.65;;;4.50;;
52031;SDS011;38044;45.148;39.604;2023-05-07T13:51:23;8.30;;;3.60;;
52031;SDS011;38044;45.148;39.604;2023-05-07T13:53:48;10.95;;;3.47;;
52031;SDS011;38044;45.148;39.604;2023-05-07T13:56:14;8.88;;;2.72;;
52031;SDS011;38044;45.148;39.604;2023-05-07T13:58:40;8.77;;;3.15;;
52031;SDS011;38044;45.148;39.604;2023-05-07T14:01:06;9.40;;;2.92;;
52031;SDS011;38044;45.148;39.604;2023-05-07T14:03:32;4.55;;;2.13;;
52031;SDS011;38044;45.148;39.604;2023-05-07T14:05:59;8.25;;;2.35;;
52031;SDS011;38044;45.148;39.604;2023-05-07T14:08:26;3.88;;;1.90;;
52031;SDS011;38044;45.148;39.604;2023-05-07T14:10:53;5.75;;;2.50;;
52031;SDS011;38044;45.148;39.604;2023-05-07T14:13:18;7.45;;;2.47;;
52031;SDS011;38044;45.148;39.604;2023-05-07T14:15:44;10.13;;;2.78;;
52031;SDS011;38044;45.148;39.604;2023-05-07T14:18:12;6.25;;;2.65;;
52031;SDS011;38044;45.148;39.604;2023-05-07T14:20:38;6.35;;;2.30;;
52031;SDS011;38044;45.148;39.604;2023-05-07T14:23:04;7.40;;;3.78;;
52031;SDS011;38044;45.148;39.604;2023-05-07T14:25:30;9.90;;;3.88;;
52031;SDS011;38044;45.148;39.604;2023-05-07T14:27:55;9.32;;;3.28;;
52031;SDS011;38044;45.148;39.604;2023-05-07T14:30:21;6.82;;;2.67;;
52031;SDS011;38044;45.148;39.604;2023-05-07T14:32:49;8.55;;;3.22;;
52031;SDS011;38044;45.148;39.604;2023-05-07T14:35:15;4.43;;;2.65;;
52031;SDS011;38044;45.148;39.604;2023-05-07T14:37:42;8.60;;;3.10;;
52031;SDS011;38044;45.148;39.604;2023-05-07T14:40:08;8.32;;;3.05;;
52031;SDS011;38044;45.148;39.604;2023-05-07T14:42:35;8.50;;;2.80;;
52031;SDS011;38044;45.148;39.604;2023-05-07T14:45:01;16.05;;;6.47;;